Time;durP1;ratioP1;P1;durP2;ratioP2;P2;SDS_P1;SDS_P2;PMS_P1;PMS_P2;Temp;Humidity;BMP_temperature;BMP_pressure;BME280_temperature;BME280_humidity;BME280_pressure;Samples;Min_cycle;Max_cycle;Signal;HPM_P1;HPM_P2
2022/03/16 00:02:21;;;;;;;0.10;0.10;;;5.50;99.90;;;;;;6348182;22;20042;-75
2022/03/16 00:04:55;;;;;;;0.30;0.30;;;5.50;99.90;;;;;;6338445;22;20014;-74
2022/03/16 00:07:22;;;;;;;3.17;1.67;;;5.40;99.90;;;;;;6348118;22;20019;-75
2022/03/16 00:09:48;;;;;;;1.50;0.73;;;5.30;99.90;;;;;;6348257;22;20240;-74
2022/03/16 00:12:15;;;;;;;2.03;1.05;;;5.30;99.90;;;;;;6347830;22;20083;-74
2022/03/16 00:14:42;;;;;;;0.40;0.40;;;5.40;99.90;;;;;;6310841;22;20037;-74
2022/03/16 00:17:09;;;;;;;8.20;4.15;;;5.40;99.90;;;;;;6348050;22;20003;-74
2022/03/16 00:19:35;;;;;;;3.60;0.77;;;5.50;99.90;;;;;;6310946;22;20014;-74
2022/03/16 00:22:04;;;;;;;1.92;1.48;;;5.60;99.90;;;;;;6348267;22;20060;-74
2022/03/16 00:24:30;;;;;;;0.47;0.47;;;5.50;99.90;;;;;;6347763;22;20059;-74
2022/03/16 00:26:56;;;;;;;2.55;2.22;;;5.60;99.90;;;;;;6348111;22;20002;-74
2022/03/16 00:29:22;;;;;;;0.38;0.38;;;5.50;99.90;;;;;;6348087;22;20064;-74
2022/03/16 00:31:48;;;;;;;7.38;2.00;;;5.50;99.90;;;;;;6337977;22;20154;-73
2022/03/16 00:34:14;;;;;;;0.60;0.60;;;5.30;99.90;;;;;;6347867;22;20003;-74
2022/03/16 00:36:40;;;;;;;0.10;0.10;;;5.40;99.90;;;;;;6347761;22;20007;-74
2022/03/16 00:39:06;;;;;;;0.45;0.45;;;5.30;99.90;;;;;;6348069;22;20092;-74
2022/03/16 00:41:34;;;;;;;0.43;0.38;;;5.10;99.90;;;;;;6310081;22;19999;-74
2022/03/16 00:44:00;;;;;;;1.50;1.30;;;5.00;99.90;;;;;;6310651;22;20340;-74
2022/03/16 00:46:26;;;;;;;0.70;0.70;;;5.00;99.90;;;;;;6320143;22;19999;-74
2022/03/16 00:48:51;;;;;;;0.20;0.20;;;4.90;99.90;;;;;;6337734;22;20007;-74
2022/03/16 00:51:17;;;;;;;1.65;1.55;;;4.80;99.90;;;;;;6347556;22;20036;-74
2022/03/16 00:53:45;;;;;;;2.30;2.00;;;4.80;99.90;;;;;;6347506;22;20015;-74
2022/03/16 00:56:12;;;;;;;2.10;1.05;;;4.80;99.90;;;;;;6347603;22;20003;-74
2022/03/16 00:58:38;;;;;;;0.47;0.47;;;4.90;99.90;;;;;;6320366;22;20010;-74
2022/03/16 01:01:06;;;;;;;0.10;0.10;;;4.90;99.90;;;;;;6309729;22;20007;-74
2022/03/16 01:03:33;;;;;;;0.25;0.25;;;4.90;99.90;;;;;;6337430;22;20011;-74
2022/03/16 01:05:59;;;;;;;1.58;1.48;;;4.80;99.90;;;;;;6347624;22;20059;-74
2022/03/16 01:08:24;;;;;;;0.10;0.10;;;4.50;99.90;;;;;;6337436;22;20011;-74
2022/03/16 01:10:50;;;;;;;1.60;1.50;;;4.40;99.90;;;;;;6347707;22;20082;-73
2022/03/16 01:13:17;;;;;;;0.15;0.15;;;4.30;99.90;;;;;;6347381;22;20013;-74
2022/03/16 01:15:42;;;;;;;2.45;1.35;;;4.40;99.90;;;;;;6347555;22;20010;-75
2022/03/16 01:18:08;;;;;;;0.10;0.10;;;4.10;99.90;;;;;;6347297;22;20382;-75
2022/03/16 01:20:34;;;;;;;0.60;0.60;;;4.10;99.90;;;;;;6347463;22;20013;-74
2022/03/16 01:23:00;;;;;;;0.20;0.20;;;4.10;99.90;;;;;;6347133;22;20002;-74
2022/03/16 01:25:26;;;;;;;0.25;0.25;;;4.10;99.90;;;;;;6347295;22;20110;-74
2022/03/16 01:27:52;;;;;;;1.17;1.08;;;4.10;99.90;;;;;;6347415;22;20046;-74
2022/03/16 01:30:18;;;;;;;0.95;0.95;;;4.10;99.90;;;;;;6347243;22;20010;-74
2022/03/16 01:32:43;;;;;;;2.47;2.00;;;4.10;99.90;;;;;;6347316;22;20007;-74
2022/03/16 01:35:10;;;;;;;1.08;1.08;;;4.10;99.90;;;;;;6347274;22;20094;-74
2022/03/16 01:37:37;;;;;;;1.15;1.00;;;4.00;99.90;;;;;;6337352;22;20029;-74
2022/03/16 01:40:05;;;;;;;0.38;0.38;;;4.00;99.90;;;;;;6347269;22;20083;-75
2022/03/16 01:42:32;;;;;;;0.20;0.20;;;4.10;99.90;;;;;;6347005;22;20442;-74
2022/03/16 01:44:58;;;;;;;1.38;0.77;;;4.00;99.90;;;;;;6346919;22;20015;-75
2022/03/16 01:47:26;;;;;;;0.10;0.10;;;4.00;99.90;;;;;;6346778;22;20041;-75
2022/03/16 01:49:55;;;;;;;0.10;0.10;;;4.00;99.90;;;;;;6336835;22;20592;-74
2022/03/16 01:52:29;;;;;;;1.55;1.30;;;4.00;99.90;;;;;;6346978;22;20041;-73
2022/03/16 01:54:56;;;;;;;0.93;0.85;;;3.80;99.90;;;;;;6319615;22;20079;-73
2022/03/16 01:57:22;;;;;;;0.22;0.22;;;3.80;99.90;;;;;;6346821;22;20011;-73
2022/03/16 01:59:49;;;;;;;0.08;0.08;;;3.70;99.90;;;;;;6347115;22;20018;-73
2022/03/16 02:02:15;;;;;;;2.38;2.17;;;3.70;99.90;;;;;;6319583;22;20010;-75
2022/03/16 02:04:42;;;;;;;0.00;0.00;;;3.70;99.90;;;;;;6319496;22;20435;-74
2022/03/16 02:07:08;;;;;;;0.20;0.20;;;3.70;99.90;;;;;;6347219;22;20011;-74
2022/03/16 02:09:35;;;;;;;0.40;0.40;;;3.80;99.90;;;;;;6319131;22;20420;-74
2022/03/16 02:12:00;;;;;;;6.35;1.25;;;3.80;99.90;;;;;;6347029;22;20014;-74
2022/03/16 02:14:28;;;;;;;0.10;0.10;;;3.80;99.90;;;;;;6336965;22;20003;-74
2022/03/16 02:16:56;;;;;;;1.40;1.30;;;3.70;99.90;;;;;;6337164;22;20032;-74
2022/03/16 02:19:23;;;;;;;2.00;1.70;;;3.70;99.90;;;;;;6346808;22;20030;-73
2022/03/16 02:22:00;;;;;;;0.50;0.50;;;3.70;99.90;;;;;;6347122;22;20135;-74
2022/03/16 02:24:29;;;;;;;0.20;0.20;;;3.70;99.90;;;;;;6319698;22;20006;-74
2022/03/16 02:26:56;;;;;;;0.10;0.10;;;3.60;99.90;;;;;;6336918;22;20005;-73
2022/03/16 02:29:22;;;;;;;0.10;0.10;;;3.70;99.90;;;;;;6336713;22;19998;-74
2022/03/16 02:31:48;;;;;;;0.17;0.17;;;3.70;99.90;;;;;;6347109;22;20034;-74
2022/03/16 02:34:14;;;;;;;1.17;0.82;;;3.70;99.90;;;;;;6336715;22;20395;-74
2022/03/16 02:36:40;;;;;;;0.10;0.10;;;3.70;99.90;;;;;;6336828;22;19999;-74
2022/03/16 02:39:06;;;;;;;0.60;0.60;;;3.70;99.90;;;;;;6346573;22;20104;-74
2022/03/16 02:41:32;;;;;;;0.10;0.10;;;3.70;99.90;;;;;;6336670;22;20416;-74
2022/03/16 02:43:58;;;;;;;0.17;0.17;;;3.50;99.90;;;;;;6336716;22;20007;-74
2022/03/16 02:46:23;;;;;;;1.48;1.38;;;3.50;99.90;;;;;;6346521;22;20336;-74
2022/03/16 02:48:49;;;;;;;0.10;0.10;;;3.50;99.90;;;;;;6336606;22;20320;-74
2022/03/16 02:51:15;;;;;;;0.10;0.10;;;3.50;99.90;;;;;;6346515;22;20442;-74
2022/03/16 02:53:41;;;;;;;0.50;0.50;;;3.30;99.90;;;;;;6318809;22;20019;-74
2022/03/16 02:56:07;;;;;;;1.25;0.85;;;3.40;99.90;;;;;;6319099;22;20080;-74
2022/03/16 02:58:33;;;;;;;1.25;1.15;;;3.40;99.90;;;;;;6348527;22;20436;-74
2022/03/16 03:00:59;;;;;;;1.83;1.73;;;3.50;99.90;;;;;;6348820;22;20053;-74
2022/03/16 03:03:25;;;;;;;1.58;1.48;;;3.50;99.90;;;;;;6348335;22;20366;-74
2022/03/16 03:05:54;;;;;;;0.98;0.32;;;3.60;99.90;;;;;;6321296;22;20002;-74
2022/03/16 03:08:20;;;;;;;0.45;0.45;;;3.60;99.90;;;;;;6338052;22;20010;-74
2022/03/16 03:10:45;;;;;;;0.03;0.03;;;3.60;99.90;;;;;;6310919;22;20337;-74
2022/03/16 03:13:14;;;;;;;0.80;0.80;;;3.60;99.90;;;;;;6338572;22;20002;-75
2022/03/16 03:15:41;;;;;;;1.15;1.13;;;3.60;99.90;;;;;;6348606;22;20081;-74
2022/03/16 03:18:07;;;;;;;0.30;0.30;;;3.60;99.90;;;;;;6348431;22;20007;-74
2022/03/16 03:20:33;;;;;;;0.30;0.30;;;3.60;99.90;;;;;;6348529;22;20015;-74
2022/03/16 03:22:58;;;;;;;0.20;0.20;;;3.60;99.90;;;;;;6310698;22;20297;-74
2022/03/16 03:25:24;;;;;;;3.65;1.30;;;3.60;99.90;;;;;;6337962;22;20007;-74
2022/03/16 03:27:50;;;;;;;0.13;0.13;;;3.50;99.90;;;;;;6338325;22;20416;-74
2022/03/16 03:30:16;;;;;;;0.40;0.40;;;3.50;99.90;;;;;;6348304;22;20015;-74
2022/03/16 03:32:42;;;;;;;1.20;1.13;;;3.50;99.90;;;;;;6284564;22;20086;-73
2022/03/16 03:35:08;;;;;;;0.65;0.65;;;3.50;99.90;;;;;;6338219;22;20045;-73
2022/03/16 03:37:36;;;;;;;1.55;0.90;;;3.50;99.90;;;;;;6337718;22;20076;-73
2022/03/16 03:40:06;;;;;;;0.10;0.10;;;3.60;99.90;;;;;;6310166;22;20014;-73
2022/03/16 03:42:32;;;;;;;0.65;0.65;;;3.60;99.90;;;;;;6320663;22;20021;-74
2022/03/16 03:44:58;;;;;;;1.33;1.23;;;3.60;99.90;;;;;;6348136;22;20010;-74
2022/03/16 03:47:23;;;;;;;0.52;0.52;;;3.60;99.90;;;;;;6348010;22;20452;-74
2022/03/16 03:49:49;;;;;;;1.48;1.40;;;3.70;99.90;;;;;;6337993;22;20013;-74
2022/03/16 03:52:15;;;;;;;0.10;0.10;;;3.70;99.90;;;;;;6338274;22;20007;-74
2022/03/16 03:54:41;;;;;;;1.38;1.02;;;3.70;99.90;;;;;;6320119;22;20038;-73
2022/03/16 03:57:07;;;;;;;0.75;0.75;;;3.70;99.90;;;;;;6348390;22;20014;-73
2022/03/16 03:59:33;;;;;;;0.32;0.32;;;3.80;99.90;;;;;;6347811;22;20006;-74
2022/03/16 04:01:59;;;;;;;1.08;1.08;;;3.70;99.90;;;;;;6348186;22;20087;-74
2022/03/16 04:04:24;;;;;;;4.70;2.60;;;3.80;99.90;;;;;;6347915;22;20053;-74
2022/03/16 04:06:50;;;;;;;2.47;1.85;;;3.80;99.90;;;;;;6348071;22;20014;-74
2022/03/16 04:09:16;;;;;;;0.77;0.77;;;3.80;99.90;;;;;;6320059;22;20003;-74
2022/03/16 04:11:42;;;;;;;2.25;2.08;;;3.90;99.90;;;;;;6347829;22;20323;-73
2022/03/16 04:14:08;;;;;;;6.13;3.30;;;3.90;99.90;;;;;;6347971;22;20200;-73
2022/03/16 04:16:34;;;;;;;0.22;0.22;;;3.90;99.90;;;;;;6320273;22;20090;-73
2022/03/16 04:18:59;;;;;;;0.43;0.43;;;3.90;99.90;;;;;;6348166;22;20443;-74
2022/03/16 04:21:25;;;;;;;1.15;1.05;;;3.90;99.90;;;;;;6319919;22;20037;-74
2022/03/16 04:23:51;;;;;;;0.60;0.60;;;3.90;99.90;;;;;;6337624;22;20011;-74
2022/03/16 04:26:18;;;;;;;1.17;1.13;;;3.90;99.90;;;;;;6309932;22;20007;-74
2022/03/16 04:28:45;;;;;;;0.55;0.55;;;3.90;99.90;;;;;;6347855;22;20010;-74
2022/03/16 04:31:10;;;;;;;0.13;0.13;;;4.00;99.90;;;;;;6284422;22;20030;-73
2022/03/16 04:33:37;;;;;;;1.95;1.85;;;4.00;99.90;;;;;;6347541;22;20011;-73
2022/03/16 04:36:04;;;;;;;1.15;1.13;;;4.00;99.90;;;;;;6310346;22;20010;-74
2022/03/16 04:38:30;;;;;;;1.35;1.25;;;4.10;99.90;;;;;;6310028;22;20014;-75
2022/03/16 04:40:56;;;;;;;0.50;0.50;;;4.10;99.90;;;;;;6337698;22;20003;-73
2022/03/16 04:43:21;;;;;;;0.17;0.17;;;4.10;99.90;;;;;;6347444;22;20047;-74
2022/03/16 04:45:47;;;;;;;0.10;0.10;;;4.20;99.90;;;;;;6320065;22;20080;-74
2022/03/16 04:48:13;;;;;;;1.02;0.68;;;4.20;99.90;;;;;;6347674;22;20146;-74
2022/03/16 04:50:40;;;;;;;0.43;0.43;;;4.20;99.90;;;;;;6337181;22;20098;-74
2022/03/16 04:53:06;;;;;;;5.00;1.42;;;4.30;99.90;;;;;;6337145;22;20461;-73
2022/03/16 04:55:36;;;;;;;1.60;1.50;;;4.30;99.90;;;;;;6347434;22;20013;-74
2022/03/16 04:58:08;;;;;;;1.20;1.17;;;4.30;99.90;;;;;;6347751;22;20002;-74
2022/03/16 05:00:37;;;;;;;0.20;0.20;;;4.30;99.90;;;;;;6347413;22;20046;-74
2022/03/16 05:03:03;;;;;;;0.52;0.52;;;4.40;99.90;;;;;;6347503;22;20340;-74
2022/03/16 05:05:30;;;;;;;0.57;0.57;;;4.40;99.90;;;;;;6347216;22;20017;-74
2022/03/16 05:07:56;;;;;;;1.35;0.57;;;4.40;99.90;;;;;;6347670;22;20077;-73
2022/03/16 05:10:22;;;;;;;1.15;1.13;;;4.40;99.90;;;;;;6336759;22;20015;-78
2022/03/16 05:12:48;;;;;;;0.10;0.10;;;4.40;99.90;;;;;;6337217;22;20388;-79
2022/03/16 05:15:17;;;;;;;1.00;1.00;;;4.60;99.90;;;;;;6347521;22;20095;-74
2022/03/16 05:17:44;;;;;;;0.30;0.30;;;4.50;99.90;;;;;;6319865;22;20051;-79
2022/03/16 05:20:10;;;;;;;1.30;1.20;;;4.50;99.90;;;;;;6336826;22;20078;-75
2022/03/16 05:22:44;;;;;;;1.02;0.85;;;4.70;99.90;;;;;;6347221;22;20007;-75
2022/03/16 05:25:18;;;;;;;0.38;0.38;;;4.70;99.90;;;;;;6337105;22;20085;-73
2022/03/16 05:27:46;;;;;;;0.10;0.10;;;4.60;99.90;;;;;;6319883;22;20067;-74
2022/03/16 05:30:14;;;;;;;0.77;0.77;;;4.70;99.90;;;;;;6337161;22;20022;-72
2022/03/16 05:32:41;;;;;;;1.48;1.38;;;4.60;99.90;;;;;;6347047;22;20007;-69
2022/03/16 05:35:09;;;;;;;0.35;0.35;;;4.60;99.90;;;;;;6309331;22;20450;-71
2022/03/16 05:37:36;;;;;;;1.05;0.98;;;4.50;99.90;;;;;;6309266;22;20010;-70
2022/03/16 05:40:02;;;;;;;1.95;1.85;;;4.40;99.90;;;;;;6337076;22;20003;-71
2022/03/16 05:42:28;;;;;;;0.88;0.88;;;4.40;99.90;;;;;;6336614;22;20006;-70
2022/03/16 05:44:54;;;;;;;0.95;0.95;;;4.50;99.90;;;;;;6337109;22;20120;-71
2022/03/16 05:47:24;;;;;;;0.77;0.77;;;4.40;99.90;;;;;;6319593;22;20002;-74
2022/03/16 05:49:59;;;;;;;1.27;1.20;;;4.40;99.90;;;;;;6346788;22;20007;-72
2022/03/16 05:52:26;;;;;;;0.35;0.35;;;4.50;99.90;;;;;;6336605;22;20003;-69
2022/03/16 05:54:54;;;;;;;0.10;0.10;;;4.60;99.90;;;;;;6336323;22;20056;-71
2022/03/16 05:57:21;;;;;;;2.10;1.60;;;4.60;99.90;;;;;;6346852;22;20056;-77
2022/03/16 05:59:47;;;;;;;0.30;0.30;;;4.70;99.90;;;;;;6346934;22;20073;-72
2022/03/16 06:02:13;;;;;;;1.52;1.42;;;4.80;99.90;;;;;;6319339;22;20011;-67
2022/03/16 06:04:41;;;;;;;2.90;2.63;;;4.80;99.90;;;;;;6346526;22;20003;-72
2022/03/16 06:07:08;;;;;;;0.50;0.50;;;4.90;99.90;;;;;;6346786;22;20100;-68
2022/03/16 06:09:34;;;;;;;4.47;2.70;;;4.90;99.90;;;;;;6346633;22;20010;-77
2022/03/16 06:12:02;;;;;;;1.60;1.48;;;5.10;99.90;;;;;;6336908;22;20089;-66
2022/03/16 06:14:29;;;;;;;2.55;2.35;;;5.10;99.90;;;;;;6337179;22;20638;-75
2022/03/16 06:16:55;;;;;;;0.15;0.15;;;5.30;99.90;;;;;;6338386;22;20029;-78
2022/03/16 06:19:20;;;;;;;6.25;2.55;;;5.40;99.90;;;;;;6347659;22;20003;-71
2022/03/16 06:21:47;;;;;;;0.10;0.10;;;5.30;99.90;;;;;;6336953;22;20355;-72
2022/03/16 06:24:14;;;;;;;1.02;1.00;;;5.30;99.90;;;;;;6336657;22;20042;-72
2022/03/16 06:26:41;;;;;;;0.13;0.13;;;5.30;99.90;;;;;;6346813;22;20081;-72
2022/03/16 06:29:07;;;;;;;1.05;1.05;;;5.40;99.90;;;;;;6319711;22;20010;-73
2022/03/16 06:31:33;;;;;;;5.15;0.90;;;5.60;99.90;;;;;;6336886;22;20007;-72
2022/03/16 06:33:59;;;;;;;0.20;0.20;;;5.50;99.90;;;;;;6349149;22;20451;-72
2022/03/16 06:36:26;;;;;;;1.60;1.50;;;5.60;99.90;;;;;;6349020;22;20052;-72
2022/03/16 06:38:53;;;;;;;9.18;1.73;;;5.50;99.90;;;;;;6338623;22;20017;-73
2022/03/16 06:41:18;;;;;;;0.10;0.10;;;5.60;99.90;;;;;;6349059;22;19999;-72
2022/03/16 06:43:44;;;;;;;0.45;0.45;;;5.50;99.90;;;;;;6348743;22;20068;-72
2022/03/16 06:46:10;;;;;;;0.40;0.40;;;5.50;99.90;;;;;;6348974;22;20010;-71
2022/03/16 06:48:36;;;;;;;0.45;0.45;;;5.60;99.90;;;;;;6348515;22;20014;-71
2022/03/16 06:51:02;;;;;;;0.38;0.38;;;5.60;99.90;;;;;;6338703;22;20481;-72
2022/03/16 06:53:28;;;;;;;2.20;2.00;;;5.70;99.90;;;;;;6348068;22;20102;-72
2022/03/16 06:55:56;;;;;;;3.78;1.33;;;5.70;99.90;;;;;;6320925;22;20031;-72
2022/03/16 06:58:22;;;;;;;0.10;0.10;;;5.80;99.90;;;;;;6338780;22;20026;-72
2022/03/16 07:00:48;;;;;;;0.20;0.20;;;5.80;99.90;;;;;;6321083;22;20404;-72
2022/03/16 07:03:14;;;;;;;0.10;0.10;;;6.00;99.90;;;;;;6348856;22;20007;-72
2022/03/16 07:05:42;;;;;;;2.08;1.02;;;6.00;99.90;;;;;;6338471;22;20003;-72
2022/03/16 07:08:13;;;;;;;0.38;0.35;;;6.10;99.90;;;;;;6338856;22;20366;-71
2022/03/16 07:10:41;;;;;;;1.98;1.13;;;6.20;99.90;;;;;;6348661;22;20018;-71
2022/03/16 07:13:07;;;;;;;0.95;0.95;;;6.30;99.90;;;;;;6348439;22;20384;-71
2022/03/16 07:15:35;;;;;;;0.45;0.45;;;6.40;99.90;;;;;;6348556;22;20440;-71
2022/03/16 07:18:04;;;;;;;0.52;0.52;;;6.50;99.90;;;;;;6320888;22;20010;-72
2022/03/16 07:20:32;;;;;;;2.45;1.17;;;6.60;99.90;;;;;;6311252;22;20007;-72
2022/03/16 07:23:17;;;;;;;0.15;0.15;;;6.60;99.90;;;;;;6338315;22;20015;-72
2022/03/16 07:25:53;;;;;;;1.05;0.95;;;6.60;99.90;;;;;;6320788;22;20014;-72
2022/03/16 07:28:20;;;;;;;0.63;0.63;;;6.70;99.90;;;;;;6311161;22;20003;-73
2022/03/16 07:30:47;;;;;;;0.68;0.68;;;6.90;99.90;;;;;;6337903;22;20049;-72
2022/03/16 07:33:13;;;;;;;0.55;0.55;;;7.00;99.90;;;;;;6348218;22;20003;-72
2022/03/16 07:35:39;;;;;;;0.22;0.22;;;7.00;99.90;;;;;;6338032;22;20435;-73
2022/03/16 07:38:06;;;;;;;0.10;0.10;;;7.10;99.90;;;;;;6348225;22;20003;-73
2022/03/16 07:40:35;;;;;;;1.10;0.75;;;7.20;99.90;;;;;;6348253;22;20007;-74
2022/03/16 07:43:01;;;;;;;1.23;1.23;;;7.40;99.90;;;;;;6347618;22;20018;-74
2022/03/16 07:45:27;;;;;;;0.10;0.10;;;7.50;99.90;;;;;;6348244;22;20069;-73
2022/03/16 07:47:53;;;;;;;1.98;1.27;;;7.60;99.90;;;;;;6337743;22;20003;-74
2022/03/16 07:50:20;;;;;;;0.10;0.10;;;7.60;99.90;;;;;;6348372;22;20064;-73
2022/03/16 07:52:46;;;;;;;0.22;0.22;;;7.50;99.90;;;;;;6347480;22;20074;-72
2022/03/16 07:55:14;;;;;;;0.35;0.35;;;7.60;99.90;;;;;;6348214;22;20523;-73
2022/03/16 07:57:40;;;;;;;0.52;0.52;;;7.60;99.90;;;;;;6347906;22;19999;-74
2022/03/16 08:00:11;;;;;;;6.50;5.97;;;7.70;99.90;;;;;;6320325;22;19999;-74
2022/03/16 08:02:38;;;;;;;1.45;1.27;;;7.90;99.90;;;;;;6311284;22;20152;-73
2022/03/16 08:05:05;;;;;;;0.10;0.10;;;7.90;99.90;;;;;;6347824;22;20007;-73
2022/03/16 08:07:31;;;;;;;0.35;0.35;;;7.90;99.90;;;;;;6346643;22;20326;-73
2022/03/16 08:09:58;;;;;;;0.80;0.80;;;8.00;99.90;;;;;;6346067;22;20077;-74
2022/03/16 08:12:24;;;;;;;0.82;0.82;;;8.00;99.90;;;;;;6347038;22;19999;-74
2022/03/16 08:14:50;;;;;;;0.38;0.38;;;8.00;99.90;;;;;;6346996;22;20007;-73
2022/03/16 08:17:19;;;;;;;0.75;0.75;;;8.20;99.90;;;;;;6347104;22;20128;-73
2022/03/16 08:19:46;;;;;;;1.77;1.55;;;8.40;99.90;;;;;;6346904;22;20003;-73
2022/03/16 08:22:11;;;;;;;1.33;1.23;;;8.20;99.90;;;;;;6347105;22;20003;-74
2022/03/16 08:24:37;;;;;;;0.63;0.63;;;8.10;99.90;;;;;;6308903;22;20011;-74
2022/03/16 08:27:04;;;;;;;0.77;0.52;;;8.30;99.90;;;;;;6309149;22;20038;-74
2022/03/16 08:29:29;;;;;;;4.18;1.42;;;8.50;99.90;;;;;;6346783;22;20002;-73
2022/03/16 08:31:57;;;;;;;1.35;1.10;;;8.50;99.90;;;;;;6337176;22;20424;-73
2022/03/16 08:34:23;;;;;;;0.32;0.32;;;8.70;99.90;;;;;;6347688;22;20023;-73
2022/03/16 08:36:51;;;;;;;0.03;0.03;;;8.80;99.90;;;;;;6337377;22;20010;-73
2022/03/16 08:39:17;;;;;;;1.10;1.00;;;8.60;99.90;;;;;;6347676;22;20007;-73
2022/03/16 08:41:42;;;;;;;2.38;1.75;;;8.80;99.90;;;;;;6347372;22;20086;-73
2022/03/16 08:44:08;;;;;;;0.98;0.98;;;9.00;99.90;;;;;;6337482;22;20019;-73
2022/03/16 08:46:34;;;;;;;4.55;3.00;;;8.90;99.90;;;;;;6347521;22;20007;-73
2022/03/16 08:49:00;;;;;;;2.78;1.48;;;9.10;99.90;;;;;;6337191;22;20017;-73
2022/03/16 08:51:26;;;;;;;1.25;0.82;;;9.20;99.90;;;;;;6347654;22;20011;-73
2022/03/16 08:53:52;;;;;;;0.52;0.52;;;9.30;99.90;;;;;;6319128;22;20052;-73
2022/03/16 08:56:20;;;;;;;0.17;0.17;;;9.40;99.90;;;;;;6337060;22;20081;-74
2022/03/16 08:58:45;;;;;;;0.08;0.08;;;9.50;99.90;;;;;;6347411;22;20007;-74
2022/03/16 09:01:11;;;;;;;0.10;0.10;;;9.50;99.90;;;;;;6337495;22;20316;-73
2022/03/16 09:03:37;;;;;;;1.10;0.57;;;9.50;99.90;;;;;;6336500;22;20032;-72
2022/03/16 09:06:03;;;;;;;0.00;0.00;;;9.60;99.90;;;;;;6347409;22;20499;-73
2022/03/16 09:08:29;;;;;;;0.22;0.20;;;9.70;99.90;;;;;;6347499;22;20042;-73
2022/03/16 09:10:56;;;;;;;0.00;0.00;;;9.50;99.90;;;;;;6337126;22;20013;-73
2022/03/16 09:13:23;;;;;;;0.20;0.20;;;9.30;99.90;;;;;;6320175;22;20014;-73
2022/03/16 09:15:51;;;;;;;1.48;1.27;;;9.20;99.90;;;;;;6319630;22;20006;-72
2022/03/16 09:18:18;;;;;;;0.52;0.52;;;9.20;99.90;;;;;;6346967;22;20037;-73
2022/03/16 09:20:44;;;;;;;0.00;0.00;;;9.30;99.90;;;;;;6346984;22;20002;-72
2022/03/16 09:23:10;;;;;;;0.43;0.43;;;9.60;99.90;;;;;;6347330;22;20056;-74
2022/03/16 09:25:36;;;;;;;0.30;0.30;;;9.80;99.90;;;;;;6336760;22;20014;-73
2022/03/16 09:28:02;;;;;;;0.15;0.15;;;9.80;99.90;;;;;;6337056;22;20336;-73
2022/03/16 09:30:28;;;;;;;0.28;0.28;;;9.80;99.90;;;;;;6309388;22;20007;-73
2022/03/16 09:32:57;;;;;;;0.55;0.55;;;10.10;99.90;;;;;;6337149;22;20025;-73
2022/03/16 09:35:23;;;;;;;0.22;0.22;;;10.30;99.90;;;;;;6337186;22;20022;-73
2022/03/16 09:37:50;;;;;;;0.40;0.40;;;9.90;99.90;;;;;;6346839;22;20006;-73
2022/03/16 09:40:17;;;;;;;0.80;0.80;;;10.10;99.90;;;;;;6346301;22;20007;-73
2022/03/16 09:42:45;;;;;;;0.88;0.88;;;10.20;99.90;;;;;;6317547;22;20011;-73
2022/03/16 09:45:20;;;;;;;0.10;0.10;;;10.40;99.90;;;;;;6318531;22;20030;-73
2022/03/16 09:47:48;;;;;;;0.80;0.80;;;10.70;99.90;;;;;;6319888;22;20003;-74
2022/03/16 09:50:18;;;;;;;1.02;0.73;;;10.90;99.90;;;;;;6337246;22;20060;-74
2022/03/16 09:52:46;;;;;;;0.00;0.00;;;11.00;99.90;;;;;;6336694;22;20052;-74
2022/03/16 09:55:17;;;;;;;1.55;0.70;;;11.00;99.90;;;;;;6319623;22;20462;-73
2022/03/16 09:57:43;;;;;;;0.28;0.28;;;11.20;99.90;;;;;;6346760;22;20014;-73
2022/03/16 10:00:13;;;;;;;0.43;0.43;;;10.80;99.90;;;;;;6337006;22;20038;-73
2022/03/16 10:02:40;;;;;;;0.60;0.60;;;11.20;99.90;;;;;;6346872;22;20038;-73
2022/03/16 10:05:09;;;;;;;1.25;1.15;;;11.40;99.90;;;;;;6346542;22;20011;-73
2022/03/16 10:07:37;;;;;;;0.57;0.57;;;11.20;99.90;;;;;;6308066;22;20015;-77
2022/03/16 10:16:09;;;;;;;0.00;0.00;;;11.50;99.90;;;;;;6220356;23;20012;-77
2022/03/16 10:18:37;;;;;;;1.45;0.65;;;10.90;99.90;;;;;;6303242;22;20015;-77
2022/03/16 10:21:04;;;;;;;0.32;0.32;;;11.30;99.90;;;;;;6346955;22;20006;-78
2022/03/16 10:23:30;;;;;;;0.55;0.55;;;11.20;99.90;;;;;;6346692;22;20015;-77
2022/03/16 10:26:00;;;;;;;3.95;1.08;;;11.60;99.90;;;;;;6336405;22;19999;-78
2022/03/16 10:28:31;;;;;;;0.30;0.30;;;11.60;99.90;;;;;;6346725;22;20463;-78
2022/03/16 10:30:58;;;;;;;0.20;0.20;;;11.90;99.90;;;;;;6336719;22;20454;-78
2022/03/16 10:33:30;;;;;;;0.55;0.55;;;12.20;99.90;;;;;;6347125;22;20013;-79
2022/03/16 10:36:05;;;;;;;0.40;0.40;;;12.30;99.90;;;;;;6346740;22;20049;-80
2022/03/16 10:38:39;;;;;;;0.08;0.08;;;12.20;99.90;;;;;;6346756;22;20014;-73
2022/03/16 10:46:52;;;;;;;0.13;0.13;;;12.50;99.90;;;;;;6336337;22;20003;-69
2022/03/16 10:49:21;;;;;;;0.93;0.85;;;12.50;99.90;;;;;;6346923;22;20343;-72
2022/03/16 10:52:06;;;;;;;0.00;0.00;;;12.60;99.90;;;;;;6336253;22;20026;-67
2022/03/16 10:54:35;;;;;;;0.60;0.60;;;12.30;99.90;;;;;;6346587;22;20015;-67
2022/03/16 10:57:05;;;;;;;0.30;0.30;;;12.50;99.90;;;;;;6335929;22;20011;-73
2022/03/16 10:59:34;;;;;;;2.08;0.65;;;12.90;99.90;;;;;;6345441;22;20035;-70
2022/03/16 11:02:05;;;;;;;0.08;0.08;;;13.00;99.90;;;;;;6336502;22;20011;-70
2022/03/16 11:04:35;;;;;;;1.02;0.60;;;13.20;99.90;;;;;;6346619;22;20011;-67
2022/03/16 11:07:03;;;;;;;0.28;0.28;;;13.00;99.90;;;;;;6346760;22;20072;-67
2022/03/16 11:09:32;;;;;;;0.40;0.38;;;12.80;99.90;;;;;;6309027;22;20424;-74
2022/03/16 11:14:47;;;;;;;0.60;0.60;;;13.10;99.90;;;;;;6346485;22;20466;-71
2022/03/16 11:17:14;;;;;;;2.58;1.00;;;13.30;99.90;;;;;;6346428;22;20011;-71
2022/03/16 11:19:46;;;;;;;1.27;1.20;;;13.50;99.90;;;;;;6338006;22;20010;-71
2022/03/16 11:26:01;;;;;;;0.00;0.00;;;13.80;99.90;;;;;;6347777;22;20089;-71
2022/03/16 11:29:05;;;;;;;0.10;0.10;;;14.90;99.90;;;;;;6348567;22;20025;-71
2022/03/16 11:31:34;;;;;;;1.30;1.02;;;15.50;99.90;;;;;;6348113;22;20475;-71
2022/03/16 11:34:10;;;;;;;0.40;0.40;;;14.60;99.90;;;;;;6338114;22;20023;-71
2022/03/16 11:36:41;;;;;;;2.75;1.50;;;13.90;99.90;;;;;;6310412;22;20454;-70
2022/03/16 11:39:20;;;;;;;0.20;0.20;;;14.10;99.90;;;;;;6348510;22;20072;-72
2022/03/16 11:41:54;;;;;;;0.17;0.17;;;13.90;99.90;;;;;;6338128;22;20002;-71
2022/03/16 11:44:26;;;;;;;0.30;0.30;;;13.90;99.90;;;;;;6337781;22;20019;-71
2022/03/16 11:46:53;;;;;;;1.52;0.75;;;14.10;99.90;;;;;;6337851;22;20009;-71
2022/03/16 11:49:29;;;;;;;0.40;0.40;;;14.20;99.90;;;;;;6320652;22;20002;-71
2022/03/16 11:52:04;;;;;;;0.93;0.77;;;14.40;99.90;;;;;;6347802;22;20003;-71
2022/03/16 11:54:46;;;;;;;0.20;0.20;;;14.20;99.90;;;;;;6337230;22;20068;-71
2022/03/16 11:57:15;;;;;;;0.13;0.13;;;14.00;99.90;;;;;;6347899;22;20010;-72
2022/03/16 11:59:45;;;;;;;0.60;0.60;;;14.70;99.90;;;;;;6347882;22;19994;-72
2022/03/16 12:02:25;;;;;;;0.27;0.27;;;15.70;99.90;;;;;;6337584;22;20130;-72
2022/03/16 12:05:01;;;;;;;0.10;0.10;;;15.20;99.90;;;;;;6310855;22;20276;-71
2022/03/16 12:07:30;;;;;;;0.32;0.32;;;15.10;99.90;;;;;;6320551;22;20041;-71
2022/03/16 12:09:56;;;;;;;0.52;0.52;;;14.70;99.90;;;;;;6347583;22;20029;-72
2022/03/16 12:15:12;;;;;;;0.13;0.13;;;14.30;99.90;;;;;;6348161;22;20041;-72
2022/03/16 12:18:02;;;;;;;0.10;0.10;;;14.30;99.90;;;;;;6337357;22;20426;-70
2022/03/16 12:20:49;;;;;;;0.50;0.50;;;14.50;99.90;;;;;;6347742;22;20042;-71
2022/03/16 12:23:41;;;;;;;0.75;0.75;;;14.30;99.90;;;;;;6323686;22;20428;-71
2022/03/16 12:26:07;;;;;;;2.53;1.52;;;14.40;99.90;;;;;;6347751;22;20017;-72
2022/03/16 12:31:19;;;;;;;2.60;0.95;;;15.70;99.90;;;;;;6337365;22;20006;-73
2022/03/16 12:33:52;;;;;;;0.52;0.32;;;15.50;99.90;;;;;;6347832;22;20438;-72
2022/03/16 12:36:35;;;;;;;0.00;0.00;;;15.50;99.90;;;;;;6337240;22;20439;-71
2022/03/16 12:39:13;;;;;;;0.20;0.20;;;15.80;99.20;;;;;;6337359;22;20100;-71
2022/03/16 12:44:24;;;;;;;0.32;0.32;;;15.00;99.90;;;;;;6347505;22;20007;-73
2022/03/16 12:47:00;;;;;;;0.38;0.38;;;15.20;99.90;;;;;;6347491;22;19998;-72
2022/03/16 12:49:30;;;;;;;0.00;0.00;;;15.10;99.90;;;;;;6347690;22;20011;-73
2022/03/16 12:52:00;;;;;;;0.28;0.28;;;14.70;99.90;;;;;;6309175;22;20313;-70
2022/03/16 12:54:36;;;;;;;0.20;0.17;;;14.70;99.90;;;;;;6347390;22;20035;-71
2022/03/16 12:57:06;;;;;;;0.00;0.00;;;14.60;99.90;;;;;;6336976;22;20087;-70
2022/03/16 12:59:48;;;;;;;0.10;0.10;;;14.50;99.90;;;;;;6347267;22;20107;-71
2022/03/16 13:02:24;;;;;;;0.13;0.13;;;15.00;99.90;;;;;;6347473;22;20080;-72
2022/03/16 13:04:56;;;;;;;2.42;0.52;;;14.80;99.90;;;;;;6309352;22;20010;-71
2022/03/16 13:07:23;;;;;;;1.55;0.85;;;14.60;99.90;;;;;;6337589;22;20003;-72
2022/03/16 13:09:50;;;;;;;1.17;1.00;;;14.80;99.90;;;;;;6337286;22;20082;-72
2022/03/16 13:12:16;;;;;;;0.60;0.60;;;14.90;99.90;;;;;;6319980;22;20009;-72
2022/03/16 13:14:47;;;;;;;0.70;0.70;;;15.10;99.90;;;;;;6347573;22;20010;-72
2022/03/16 13:17:17;;;;;;;0.57;0.57;;;14.80;99.90;;;;;;6337228;22;20060;-72
2022/03/16 13:19:48;;;;;;;2.15;0.85;;;14.60;99.90;;;;;;6337263;22;20014;-72
2022/03/16 13:22:17;;;;;;;0.50;0.50;;;14.30;99.90;;;;;;6347273;22;19999;-72
2022/03/16 13:24:49;;;;;;;0.55;0.55;;;14.20;99.90;;;;;;6336786;22;20257;-72
2022/03/16 13:27:35;;;;;;;0.85;0.22;;;14.40;99.90;;;;;;6347124;22;20010;-72